Time;durP1;ratioP1;P1;durP2;ratioP2;P2;SDS_P1;SDS_P2;PMS_P1;PMS_P2;Temp;Humidity;BMP_temperature;BMP_pressure;BME280_temperature;BME280_humidity;BME280_pressure;Samples;Min_cycle;Max_cycle;Signal;HPM_P1;HPM_P2
2022/08/14 00:02:57;;;;;;;7.93;7.13;;;;;;;24.10;47.94;97702.94;8283135;28;20230;-78
2022/08/14 00:07:01;;;;;;;9.73;6.90;;;;;;;24.03;48.32;97694.00;8282792;28;20237;-78
2022/08/14 00:11:05;;;;;;;8.50;7.10;;;;;;;23.94;48.14;97690.50;8282756;28;20262;-78
2022/08/14 00:15:12;;;;;;;7.87;7.00;;;;;;;23.89;48.46;97690.13;8282560;28;20237;-78
2022/08/14 00:19:16;;;;;;;9.03;6.90;;;;;;;23.86;48.81;97693.13;8282141;28;20241;-78
2022/08/14 00:23:23;;;;;;;9.83;7.13;;;;;;;23.83;48.55;97689.94;8282464;28;20404;-77
2022/08/14 00:27:26;;;;;;;9.40;7.63;;;;;;;23.81;48.42;97688.28;8282164;28;20245;-78
2022/08/14 00:31:36;;;;;;;8.30;7.57;;;;;;;23.82;48.67;97686.50;8282208;28;20409;-78
2022/08/14 00:35:47;;;;;;;9.10;8.20;;;;;;;23.73;48.59;97682.94;8281579;28;20225;-76
2022/08/14 00:40:14;;;;;;;8.57;7.77;;;;;;;23.70;48.98;97677.13;8281904;28;20229;-77
2022/08/14 00:44:35;;;;;;;8.37;7.50;;;;;;;23.58;48.65;97677.41;8281941;28;20517;-77
2022/08/14 00:48:38;;;;;;;8.53;7.80;;;;;;;23.54;48.55;97668.13;8282058;28;20287;-77
2022/08/14 00:52:44;;;;;;;8.43;7.63;;;;;;;23.51;48.85;97663.16;8281816;28;20233;-77
2022/08/14 00:56:54;;;;;;;10.00;7.93;;;;;;;23.49;48.59;97657.19;8281448;28;20231;-77
2022/08/14 01:00:58;;;;;;;8.67;7.87;;;;;;;23.47;49.01;97661.81;8281549;28;20233;-76
2022/08/14 01:05:03;;;;;;;9.30;7.97;;;;;;;23.32;49.25;97655.47;8281736;28;20244;-76
2022/08/14 01:09:06;;;;;;;9.50;8.50;;;;;;;23.38;49.12;97649.53;8281703;28;20233;-77
2022/08/14 01:13:15;;;;;;;10.30;8.10;;;;;;;23.30;49.42;97647.69;8281629;28;20237;-77
2022/08/14 01:17:18;;;;;;;8.67;7.83;;;;;;;23.30;49.38;97645.03;8281546;28;20229;-77
2022/08/14 01:21:25;;;;;;;10.40;8.80;;;;;;;23.03;49.62;97638.09;8281462;28;20233;-77
2022/08/14 01:25:30;;;;;;;11.43;8.57;;;;;;;23.06;49.51;97632.53;8281177;28;20396;-77
2022/08/14 01:29:36;;;;;;;9.23;8.33;;;;;;;23.13;49.61;97632.72;8281614;28;20224;-77
2022/08/14 01:34:02;;;;;;;10.23;8.90;;;;;;;23.10;50.01;97625.13;8287189;28;20232;-76
2022/08/14 01:38:33;;;;;;;9.20;8.30;;;;;;;23.16;50.26;97627.97;8287473;28;20526;-77
2022/08/14 01:42:40;;;;;;;10.00;9.03;;;;;;;23.10;50.87;97631.22;8287189;28;20344;-77
2022/08/14 01:46:46;;;;;;;9.97;8.97;;;;;;;23.00;49.98;97623.38;8286957;28;20252;-77
2022/08/14 01:51:01;;;;;;;9.73;8.87;;;;;;;23.00;50.26;97630.47;8286867;28;20235;-76
2022/08/14 01:55:08;;;;;;;9.03;8.23;;;;;;;22.98;50.75;97619.22;8286766;28;20476;-76
2022/08/14 01:59:20;;;;;;;9.20;8.37;;;;;;;22.97;50.47;97612.28;8287023;28;20489;-77
2022/08/14 02:03:24;;;;;;;10.00;8.33;;;;;;;22.83;51.14;97616.34;8286749;28;20233;-77
2022/08/14 02:07:32;;;;;;;9.80;8.90;;;;;;;22.86;50.59;97607.28;8286787;28;20233;-76
2022/08/14 02:11:56;;;;;;;13.30;9.67;;;;;;;22.84;50.04;97613.53;8285935;28;20251;-77
2022/08/14 02:15:59;;;;;;;9.80;8.83;;;;;;;22.76;50.20;97599.44;8286259;28;20233;-77
2022/08/14 02:20:22;;;;;;;10.97;9.33;;;;;;;22.71;50.10;97594.63;8285934;28;20235;-77
2022/08/14 02:24:28;;;;;;;10.60;9.13;;;;;;;22.56;50.28;97586.44;8286176;28;20229;-77
2022/08/14 02:28:44;;;;;;;10.20;9.20;;;;;;;22.58;50.65;97588.91;8285782;28;20249;-77
2022/08/14 02:33:01;;;;;;;10.27;9.30;;;;;;;22.59;50.82;97570.28;8285533;28;20237;-77
2022/08/14 02:37:08;;;;;;;10.40;9.40;;;;;;;22.61;50.29;97580.69;8285617;28;20415;-77
2022/08/14 02:41:13;;;;;;;10.10;9.20;;;;;;;22.56;50.48;97575.88;8284969;28;20237;-77
2022/08/14 02:45:19;;;;;;;10.70;9.70;;;;;;;22.58;50.63;97575.72;8285544;28;20298;-76
2022/08/14 02:49:25;;;;;;;10.47;9.40;;;;;;;22.57;50.16;97563.53;8285412;28;20292;-77
2022/08/14 02:53:37;;;;;;;10.00;9.10;;;;;;;22.45;50.48;97558.47;8285265;28;20236;-77
2022/08/14 02:57:44;;;;;;;9.40;8.50;;;;;;;22.37;50.65;97547.88;8285024;28;20540;-77
2022/08/14 03:01:54;;;;;;;10.53;9.57;;;;;;;22.30;50.97;97552.09;8284582;28;20233;-76
2022/08/14 03:05:58;;;;;;;10.60;9.40;;;;;;;22.34;50.91;97542.91;8284821;28;20229;-77
2022/08/14 03:10:02;;;;;;;10.77;9.77;;;;;;;22.29;50.37;97544.31;8284704;28;20265;-77
2022/08/14 03:14:25;;;;;;;10.50;9.57;;;;;;;22.20;50.41;97548.66;8284255;28;20246;-77
2022/08/14 03:18:31;;;;;;;10.23;9.23;;;;;;;22.10;51.06;97534.75;8284497;28;20222;-77
2022/08/14 03:22:34;;;;;;;10.10;9.20;;;;;;;22.16;51.01;97537.63;8284258;28;20232;-77
2022/08/14 03:26:38;;;;;;;10.87;9.77;;;;;;;22.14;51.06;97534.31;8284168;28;20229;-77
2022/08/14 03:30:41;;;;;;;10.50;9.60;;;;;;;22.06;50.93;97528.94;8284142;28;20233;-77
2022/08/14 03:34:47;;;;;;;10.13;9.23;;;;;;;21.99;51.20;97525.25;8283915;28;20294;-77
2022/08/14 03:38:58;;;;;;;10.90;9.30;;;;;;;21.98;52.36;97527.06;8283399;28;20234;-76
2022/08/14 03:43:20;;;;;;;10.70;9.70;;;;;;;22.02;53.42;97519.69;8283428;28;20229;-76
2022/08/14 03:47:23;;;;;;;10.07;9.27;;;;;;;22.18;53.49;97511.06;8283498;28;20237;-77
2022/08/14 03:51:48;;;;;;;10.63;9.67;;;;;;;22.01;54.51;97513.59;8283398;28;20237;-77
2022/08/14 03:55:55;;;;;;;11.87;10.67;;;;;;;22.09;54.10;97510.19;8282158;28;20292;-77
2022/08/14 04:00:04;;;;;;;12.33;11.17;;;;;;;22.01;54.31;97500.41;8282981;28;20257;-76
2022/08/14 04:04:09;;;;;;;11.50;10.30;;;;;;;22.00;54.66;97500.53;8283081;28;20245;-77
2022/08/14 04:08:13;;;;;;;10.93;9.83;;;;;;;22.00;54.97;97488.19;8282461;28;20416;-77
2022/08/14 04:12:32;;;;;;;10.50;9.60;;;;;;;21.99;54.78;97491.81;8282440;28;20544;-77
2022/08/14 04:16:40;;;;;;;11.80;10.70;;;;;;;22.05;54.64;97485.13;8282668;28;20232;-77
2022/08/14 04:20:45;;;;;;;11.80;10.60;;;;;;;21.97;54.89;97483.22;8282553;28;20542;-76
2022/08/14 04:24:58;;;;;;;11.67;10.03;;;;;;;22.08;54.33;97489.25;8282224;28;20235;-76
2022/08/14 04:29:08;;;;;;;11.60;10.40;;;;;;;21.98;54.60;97482.25;8282503;28;20300;-77
2022/08/14 04:33:17;;;;;;;12.13;10.77;;;;;;;22.00;54.67;97482.91;8282430;28;20563;-77
2022/08/14 04:46:20;;;;;;;11.80;10.70;;;;;;;22.08;54.50;97468.16;8281939;28;20244;-76
2022/08/14 04:50:45;;;;;;;11.13;9.93;;;;;;;22.08;54.65;97470.78;8281961;28;20536;-77
2022/08/14 04:54:56;;;;;;;11.77;10.57;;;;;;;22.11;54.84;97467.84;8281538;28;20233;-77
2022/08/14 04:59:03;;;;;;;11.43;10.43;;;;;;;22.21;54.67;97468.56;8282048;28;20256;-76
2022/08/14 05:03:12;;;;;;;11.57;10.33;;;;;;;22.20;54.81;97467.75;8282029;28;20229;-77
2022/08/14 05:07:16;;;;;;;10.97;9.87;;;;;;;22.30;54.53;97461.59;8287683;28;20233;-77
2022/08/14 05:11:39;;;;;;;11.97;10.73;;;;;;;22.32;54.34;97470.19;8288322;28;20240;-77
2022/08/14 05:15:45;;;;;;;11.13;10.13;;;;;;;22.28;53.13;97467.03;8288177;28;20240;-77
2022/08/14 05:19:50;;;;;;;11.47;10.20;;;;;;;22.31;52.97;97474.59;8287504;28;20303;-78
2022/08/14 05:24:12;;;;;;;13.97;10.07;;;;;;;22.35;52.94;97473.34;8287842;28;20236;-76
2022/08/14 05:28:24;;;;;;;10.87;9.77;;;;;;;22.47;52.90;97473.91;8287643;28;20248;-77
2022/08/14 05:32:30;;;;;;;11.10;10.00;;;;;;;22.50;53.02;97478.03;8287574;28;20229;-77
2022/08/14 05:36:33;;;;;;;12.37;11.27;;;;;;;22.53;53.67;97469.81;8287735;28;20389;-77
2022/08/14 05:40:38;;;;;;;12.37;11.20;;;;;;;22.64;53.55;97469.56;8287406;28;20232;-77
2022/08/14 05:44:42;;;;;;;11.13;10.10;;;;;;;22.78;53.18;97470.78;8287245;28;20241;-77
2022/08/14 05:48:49;;;;;;;12.33;10.63;;;;;;;22.82;53.50;97469.47;8286794;28;20235;-77
2022/08/14 05:52:53;;;;;;;11.13;10.07;;;;;;;23.07;53.35;97470.44;8287083;28;20240;-77
2022/08/14 05:56:56;;;;;;;11.50;10.50;;;;;;;23.16;53.04;97481.88;8286958;28;20235;-77
2022/08/14 06:01:00;;;;;;;11.53;10.43;;;;;;;23.20;53.55;97489.31;8286853;28;20258;-77
2022/08/14 06:05:05;;;;;;;11.30;10.20;;;;;;;23.47;52.34;97476.84;8287008;28;20233;-77
2022/08/14 06:09:10;;;;;;;11.23;10.33;;;;;;;23.44;52.75;97477.19;8286765;28;20233;-79
2022/08/14 06:13:13;;;;;;;10.83;9.73;;;;;;;23.59;52.66;97483.50;8286469;28;20516;-77
2022/08/14 06:17:16;;;;;;;10.33;9.33;;;;;;;23.60;52.64;97482.50;8285641;28;20441;-76
2022/08/14 06:21:29;;;;;;;10.60;9.60;;;;;;;23.86;52.07;97491.34;8286282;28;20247;-76
2022/08/14 06:25:34;;;;;;;10.30;9.30;;;;;;;23.86;52.06;97492.16;8286275;28;20230;-76
2022/08/14 06:29:38;;;;;;;10.93;8.80;;;;;;;23.69;53.29;97482.53;8286110;28;20239;-77
2022/08/14 06:33:41;;;;;;;12.27;8.83;;;;;;;24.16;52.53;97487.19;8285822;28;20599;-77
2022/08/14 06:38:05;;;;;;;10.03;8.40;;;;;;;23.98;53.05;97490.03;8285466;28;20233;-77
2022/08/14 06:42:08;;;;;;;8.93;8.03;;;;;;;24.19;52.63;97487.69;8285552;28;20257;-76
2022/08/14 06:46:31;;;;;;;8.63;7.83;;;;;;;24.39;52.65;97487.38;8285459;28;20233;-77
2022/08/14 06:50:38;;;;;;;8.87;7.70;;;;;;;24.07;52.86;97493.50;8285638;28;20296;-77
2022/08/14 06:54:43;;;;;;;9.17;8.13;;;;;;;24.38;51.89;97491.81;8285441;28;20546;-78
2022/08/14 06:58:46;;;;;;;8.53;7.73;;;;;;;25.05;50.35;97493.34;8284986;28;20304;-77
2022/08/14 07:07:14;;;;;;;9.50;7.70;;;;;;;24.83;51.27;97480.84;8284938;28;20237;-77
2022/08/14 07:11:18;;;;;;;7.93;7.20;;;;;;;24.87;51.07;97475.06;8284657;28;20229;-77
2022/08/14 07:15:21;;;;;;;8.87;7.20;;;;;;;25.48;49.88;97483.25;8284186;28;20240;-77
2022/08/14 07:19:24;;;;;;;8.10;7.30;;;;;;;25.09;50.51;97476.16;8284347;28;20233;-78
2022/08/14 07:23:31;;;;;;;8.07;7.27;;;;;;;24.78;51.28;97471.59;8284662;28;20419;-77
2022/08/14 07:27:35;;;;;;;7.63;7.03;;;;;;;25.40;49.40;97472.72;8283278;28;20234;-77
2022/08/14 07:31:42;;;;;;;7.70;6.50;;;;;;;25.29;49.68;97462.50;8284380;28;20241;-78
2022/08/14 07:35:45;;;;;;;7.23;6.27;;;;;;;25.40;49.34;97454.16;8283982;28;20353;-77
2022/08/14 07:40:01;;;;;;;7.00;6.40;;;;;;;26.01;48.03;97443.66;8283558;28;20392;-77
2022/08/14 07:44:05;;;;;;;7.77;6.50;;;;;;;26.37;46.89;97445.66;8283343;28;20247;-77
2022/08/14 07:48:28;;;;;;;7.20;6.53;;;;;;;26.74;46.65;97438.66;8283547;28;20230;-78
2022/08/14 07:52:31;;;;;;;6.80;6.20;;;;;;;26.61;45.94;97425.19;8283497;28;20238;-78
2022/08/14 07:56:35;;;;;;;6.03;5.43;;;;;;;27.12;45.33;97425.25;8283389;28;20427;-77
2022/08/14 08:00:54;;;;;;;6.90;5.73;;;;;;;27.82;43.57;97423.75;8282887;28;20235;-77
2022/08/14 08:04:59;;;;;;;8.57;6.20;;;;;;;27.26;43.83;97416.47;8283139;28;20243;-77
2022/08/14 08:09:03;;;;;;;5.67;5.17;;;;;;;27.65;43.09;97404.56;8283192;28;20246;-77
2022/08/14 08:13:09;;;;;;;5.83;5.33;;;;;;;26.99;43.99;97393.19;8282631;28;22434;-77
2022/08/14 08:17:14;;;;;;;5.90;5.40;;;;;;;27.69;42.40;97397.03;8283018;28;20234;-77
2022/08/14 08:21:17;;;;;;;5.20;4.70;;;;;;;28.08;41.71;97403.72;8282930;28;20230;-77
2022/08/14 08:25:20;;;;;;;5.90;4.57;;;;;;;28.25;40.89;97398.94;8282555;28;20249;-77
2022/08/14 08:29:24;;;;;;;5.50;5.00;;;;;;;28.60;41.04;97399.00;8282675;28;20237;-77
2022/08/14 08:33:35;;;;;;;5.80;4.77;;;;;;;29.38;40.22;97386.19;8282362;28;20230;-77
2022/08/14 08:37:38;;;;;;;5.47;4.80;;;;;;;29.75;38.19;97383.19;8282110;28;20250;-77
2022/08/14 08:41:46;;;;;;;5.10;4.60;;;;;;;30.15;37.22;97385.84;8281664;28;20233;-78
2022/08/14 08:45:56;;;;;;;4.90;4.47;;;;;;;29.72;36.76;97387.06;8281802;28;20228;-77
2022/08/14 08:50:01;;;;;;;5.03;4.57;;;;;;;29.16;38.00;97396.19;8282157;28;20230;-76
2022/08/14 08:54:24;;;;;;;5.93;4.40;;;;;;;29.43;37.23;97375.75;8282104;28;20232;-77
2022/08/14 08:58:37;;;;;;;4.70;4.30;;;;;;;29.99;36.04;97373.75;8282305;28;20253;-77
2022/08/14 09:02:43;;;;;;;3.90;3.50;;;;;;;30.69;36.28;97373.22;8281964;28;20233;-75
2022/08/14 09:06:49;;;;;;;4.67;3.70;;;;;;;31.24;33.24;97367.47;8281986;28;20238;-75
2022/08/14 09:11:12;;;;;;;5.57;3.50;;;;;;;29.96;33.47;97374.97;8281278;28;20237;-75
2022/08/14 09:15:22;;;;;;;5.17;3.60;;;;;;;29.49;34.24;97362.59;8281321;28;20232;-75
2022/08/14 09:19:26;;;;;;;5.63;3.83;;;;;;;29.76;33.73;97374.19;8281652;28;20296;-75
2022/08/14 09:23:32;;;;;;;4.60;3.20;;;;;;;30.59;32.64;97389.69;8281644;28;20236;-75
2022/08/14 09:27:55;;;;;;;3.73;3.43;;;;;;;31.11;32.01;97379.03;8281218;28;20237;-75
2022/08/14 09:32:00;;;;;;;3.67;3.30;;;;;;;31.74;31.19;97371.06;8281428;28;20227;-76
2022/08/14 09:36:25;;;;;;;4.23;3.83;;;;;;;31.80;31.44;97356.00;8281779;28;20245;-75
2022/08/14 09:40:45;;;;;;;4.57;4.17;;;;;;;31.88;31.20;97368.28;8281328;28;20230;-76
2022/08/14 09:45:02;;;;;;;4.20;3.80;;;;;;;30.28;32.98;97367.16;8280730;28;20429;-75
2022/08/14 09:49:10;;;;;;;4.30;3.90;;;;;;;29.74;34.29;97371.72;8281289;28;20285;-75
2022/08/14 09:53:42;;;;;;;3.77;3.47;;;;;;;30.90;33.06;97366.81;8285317;28;20295;-75
2022/08/14 09:58:13;;;;;;;4.03;3.63;;;;;;;31.94;31.05;97352.16;8287028;28;20239;-75
2022/08/14 10:02:25;;;;;;;7.20;5.87;;;;;;;32.29;30.19;97354.34;8287287;28;20225;-75
2022/08/14 10:06:30;;;;;;;4.20;3.80;;;;;;;31.60;31.39;97344.63;8286973;28;20236;-76
2022/08/14 10:10:36;;;;;;;4.70;3.70;;;;;;;30.84;32.87;97335.56;8286919;28;20237;-76
2022/08/14 10:14:40;;;;;;;4.07;3.67;;;;;;;30.17;33.98;97341.06;8286670;28;20243;-75
2022/08/14 10:18:44;;;;;;;5.27;4.57;;;;;;;29.97;34.79;97335.78;8286709;28;20236;-75
2022/08/14 10:22:48;;;;;;;4.43;4.03;;;;;;;29.56;34.93;97316.25;8286009;28;20265;-75
2022/08/14 10:27:17;;;;;;;4.40;4.00;;;;;;;30.10;34.54;97311.75;8286080;28;20528;-75
2022/08/14 10:31:23;;;;;;;5.33;4.30;;;;;;;31.16;32.55;97297.16;8286155;28;20226;-76
2022/08/14 10:35:39;;;;;;;4.83;4.00;;;;;;;30.56;32.41;97301.97;8286091;28;20238;-79
2022/08/14 10:39:59;;;;;;;4.70;4.30;;;;;;;31.40;31.29;97309.94;8285564;28;20228;-76
2022/08/14 10:44:13;;;;;;;5.30;4.30;;;;;;;32.32;30.34;97307.53;8285434;28;20233;-75
2022/08/14 10:48:25;;;;;;;5.50;4.03;;;;;;;30.58;32.24;97300.72;8285676;28;20236;-76
2022/08/14 10:52:57;;;;;;;4.73;4.40;;;;;;;30.18;33.52;97292.00;8285593;28;20226;-75
2022/08/14 10:57:11;;;;;;;6.20;5.00;;;;;;;30.55;31.69;97290.44;8285318;28;20226;-75
2022/08/14 11:01:14;;;;;;;4.90;4.50;;;;;;;32.21;29.81;97284.16;8285215;28;20232;-75
2022/08/14 11:05:19;;;;;;;5.93;4.27;;;;;;;31.65;30.62;97301.97;8284851;28;20238;-75
2022/08/14 11:09:22;;;;;;;5.67;4.70;;;;;;;32.16;30.42;97284.84;8285191;28;20227;-76
2022/08/14 11:13:29;;;;;;;5.37;4.47;;;;;;;31.06;32.08;97283.44;8284522;28;20239;-76
2022/08/14 11:17:34;;;;;;;5.13;4.63;;;;;;;30.57;32.85;97277.69;8284939;28;20412;-75
2022/08/14 11:21:40;;;;;;;5.23;4.73;;;;;;;30.13;33.56;97275.78;8284348;28;20249;-75
2022/08/14 11:25:48;;;;;;;5.07;4.60;;;;;;;31.74;31.25;97274.72;8283830;28;20356;-75
2022/08/14 11:29:56;;;;;;;6.20;4.50;;;;;;;31.20;31.66;97275.31;8284347;28;20235;-74
2022/08/14 11:34:19;;;;;;;6.23;4.50;;;;;;;31.10;31.57;97260.59;8283335;28;20674;-74
2022/08/14 11:38:39;;;;;;;4.50;4.10;;;;;;;30.44;32.68;97266.25;8283980;28;20622;-75
2022/08/14 11:42:47;;;;;;;5.13;4.63;;;;;;;30.10;33.04;97266.34;8284014;28;20229;-74
2022/08/14 11:47:02;;;;;;;5.27;4.27;;;;;;;31.44;30.99;97257.66;8283651;28;20429;-74
2022/08/14 11:51:13;;;;;;;5.37;4.57;;;;;;;32.02;30.87;97248.53;8283597;28;20233;-73
2022/08/14 11:55:20;;;;;;;5.93;4.00;;;;;;;32.75;28.65;97236.09;8283432;28;20399;-74
2022/08/14 11:59:31;;;;;;;4.20;3.90;;;;;;;32.48;28.67;97236.44;8283048;28;20238;-73
2022/08/14 12:03:36;;;;;;;5.53;3.90;;;;;;;33.24;27.87;97224.28;8283469;28;20246;-74
2022/08/14 12:07:54;;;;;;;6.47;4.13;;;;;;;32.64;27.74;97222.44;8283428;28;20524;-75
2022/08/14 12:11:58;;;;;;;7.20;3.90;;;;;;;33.49;27.00;97216.00;8282953;28;20236;-74
2022/08/14 12:16:04;;;;;;;5.10;4.57;;;;;;;32.74;27.09;97208.50;8281943;28;20239;-73
2022/08/14 12:20:12;;;;;;;6.13;4.10;;;;;;;32.71;27.05;97206.25;8282659;28;20228;-74
2022/08/14 12:24:16;;;;;;;4.43;4.00;;;;;;;32.93;26.36;97193.97;8282669;28;20239;-75
2022/08/14 12:28:40;;;;;;;4.73;4.30;;;;;;;32.64;26.59;97198.31;8282649;28;20230;-74
2022/08/14 12:33:04;;;;;;;4.50;4.10;;;;;;;32.22;27.17;97187.53;8281978;28;20237;-75
2022/08/14 12:37:09;;;;;;;5.10;4.40;;;;;;;32.94;27.08;97170.66;8282193;28;20263;-75
2022/08/14 12:41:15;;;;;;;4.83;4.10;;;;;;;32.87;26.39;97184.16;8281994;28;20298;-76
2022/08/14 12:45:33;;;;;;;4.53;4.07;;;;;;;33.41;25.64;97169.91;8281833;28;20638;-75
2022/08/14 12:49:36;;;;;;;4.73;4.07;;;;;;;33.17;25.94;97166.38;8282037;28;20232;-76
2022/08/14 12:53:39;;;;;;;8.30;4.57;;;;;;;32.70;26.67;97157.19;8281813;28;20300;-76
2022/08/14 12:57:44;;;;;;;4.23;3.83;;;;;;;32.94;26.38;97157.25;8281483;28;20240;-76
2022/08/14 13:01:56;;;;;;;8.20;4.20;;;;;;;33.96;25.73;97141.84;8281395;28;20431;-76
2022/08/14 13:06:09;;;;;;;5.00;4.50;;;;;;;33.97;25.29;97132.75;8281493;28;20530;-74
2022/08/14 13:10:14;;;;;;;4.83;4.33;;;;;;;33.74;25.83;97134.44;8281699;28;20258;-74
2022/08/14 13:14:39;;;;;;;6.00;4.53;;;;;;;32.83;26.06;97132.06;8280619;28;20243;-74
2022/08/14 13:18:45;;;;;;;5.37;4.13;;;;;;;33.34;25.88;97112.84;8281432;28;20298;-74
2022/08/14 13:22:49;;;;;;;4.90;4.07;;;;;;;33.50;25.51;97107.59;8281133;28;20228;-77
2022/08/14 13:26:54;;;;;;;4.83;3.77;;;;;;;33.54;25.35;97099.88;8284466;28;20237;-77
2022/08/14 13:30:58;;;;;;;5.25;4.03;;;;;;;33.13;26.09;97088.28;8287728;28;20404;-78
2022/08/14 13:35:03;;;;;;;4.60;3.70;;;;;;;33.17;25.76;97085.91;8287752;28;20244;-76
2022/08/14 13:39:15;;;;;;;4.03;3.67;;;;;;;32.88;25.53;97075.06;8287298;28;20563;-77
2022/08/14 13:43:18;;;;;;;3.93;3.57;;;;;;;32.72;26.22;97058.59;8287273;28;20232;-79
2022/08/14 13:47:28;;;;;;;4.30;3.90;;;;;;;33.66;26.38;97056.94;8287092;28;20238;-76
2022/08/14 13:51:37;;;;;;;4.57;4.17;;;;;;;32.82;26.56;97058.03;8287153;28;20292;-76
2022/08/14 13:55:41;;;;;;;4.50;4.10;;;;;;;33.17;26.33;97049.22;8286175;28;20226;-75
2022/08/14 13:59:46;;;;;;;6.20;4.60;;;;;;;32.12;27.28;97046.13;8286679;28;20236;-76
2022/08/14 14:03:55;;;;;;;4.30;3.90;;;;;;;31.88;27.74;97047.84;8286111;28;20426;-77
2022/08/14 14:08:00;;;;;;;4.60;4.20;;;;;;;31.49;27.81;97041.16;8286463;28;20556;-75
2022/08/14 14:12:04;;;;;;;5.33;4.27;;;;;;;32.58;26.93;97042.97;8286249;28;20232;-75
2022/08/14 14:16:10;;;;;;;5.33;4.50;;;;;;;33.12;26.70;97030.31;8286131;28;20265;-76
2022/08/14 14:20:19;;;;;;;4.50;4.10;;;;;;;33.28;26.07;97026.91;8285946;28;20238;-76
2022/08/14 14:24:39;;;;;;;6.70;4.00;;;;;;;32.26;26.54;97025.31;8285888;28;20237;-77
2022/08/14 14:28:49;;;;;;;3.70;3.30;;;;;;;32.90;25.77;97025.53;8285906;28;20289;-76
2022/08/14 14:32:53;;;;;;;5.70;3.70;;;;;;;33.35;25.62;97017.91;8284995;28;20518;-77
2022/08/14 14:37:11;;;;;;;5.03;4.30;;;;;;;33.57;26.01;96997.44;8285052;28;22224;-75
2022/08/14 14:41:19;;;;;;;5.10;4.10;;;;;;;33.18;25.95;97004.41;8284817;28;20420;-76
2022/08/14 14:45:23;;;;;;;4.53;4.13;;;;;;;33.09;26.09;97003.91;8285137;28;20240;-76
2022/08/14 14:49:28;;;;;;;4.93;4.10;;;;;;;32.19;27.07;97002.34;8285109;28;20237;-76
2022/08/14 14:53:51;;;;;;;5.20;4.10;;;;;;;31.53;28.19;96999.56;8284439;28;20244;-76
2022/08/14 14:57:55;;;;;;;8.00;4.30;;;;;;;31.49;27.97;96998.34;8284550;28;20300;-73
2022/08/14 15:02:00;;;;;;;4.33;3.90;;;;;;;31.14;28.37;96993.59;8285012;28;20387;-75
2022/08/14 15:06:07;;;;;;;5.07;4.27;;;;;;;30.99;28.66;97001.97;8284576;28;20267;-75
2022/08/14 15:10:12;;;;;;;7.27;5.10;;;;;;;31.17;28.49;96990.47;8284701;28;20232;-74
2022/08/14 15:14:36;;;;;;;9.13;4.50;;;;;;;31.67;28.25;96984.94;8284117;28;20527;-74
2022/08/14 15:18:59;;;;;;;4.57;4.13;;;;;;;32.01;27.55;96963.06;8283171;28;20294;-74
2022/08/14 15:23:02;;;;;;;4.70;4.30;;;;;;;32.34;27.75;96979.44;8284357;28;20241;-74
2022/08/14 15:27:14;;;;;;;4.90;4.17;;;;;;;32.10;26.91;96973.25;8283927;28;20235;-74
2022/08/14 15:31:29;;;;;;;6.63;4.57;;;;;;;32.02;26.78;96976.22;8284068;28;20530;-74
2022/08/14 15:35:32;;;;;;;5.00;4.40;;;;;;;32.04;27.11;96973.31;8283921;28;20320;-75
2022/08/14 15:39:36;;;;;;;4.43;4.03;;;;;;;32.14;27.37;96977.09;8283842;28;20524;-75
2022/08/14 15:43:40;;;;;;;4.40;4.00;;;;;;;32.53;27.05;96973.97;8283731;28;20247;-74
2022/08/14 15:47:45;;;;;;;5.00;4.33;;;;;;;32.42;26.54;96970.25;8283684;28;20283;-75
2022/08/14 15:51:54;;;;;;;5.80;4.30;;;;;;;32.16;26.92;96968.81;8282261;28;20232;-75
2022/08/14 15:55:57;;;;;;;6.50;3.73;;;;;;;32.14;27.26;96963.69;8283233;28;20411;-74
2022/08/14 16:04:41;;;;;;;4.30;3.90;;;;;;;31.37;27.54;96964.28;8282751;28;20227;-75
2022/08/14 16:08:45;;;;;;;4.13;3.73;;;;;;;31.43;27.27;96959.09;8283062;28;20224;-75
2022/08/14 16:12:52;;;;;;;6.20;4.40;;;;;;;31.77;27.51;96957.63;8282168;28;20240;-76
2022/08/14 16:16:57;;;;;;;5.43;4.30;;;;;;;31.48;27.66;96949.38;8282909;28;20276;-75
2022/08/14 16:21:07;;;;;;;6.50;4.00;;;;;;;31.44;27.84;96942.00;8282575;28;20338;-76
2022/08/14 16:25:14;;;;;;;6.67;4.57;;;;;;;31.56;27.83;96937.53;8282461;28;20317;-75
2022/08/14 16:29:21;;;;;;;4.40;4.00;;;;;;;31.74;27.22;96945.53;8282380;28;20234;-76
2022/08/14 16:33:26;;;;;;;4.97;4.27;;;;;;;31.49;27.79;96943.00;8282176;28;20231;-77
2022/08/14 16:37:51;;;;;;;6.80;4.30;;;;;;;31.55;28.28;96938.59;8281893;28;20240;-76
2022/08/14 16:41:58;;;;;;;4.70;4.20;;;;;;;31.52;28.22;96929.16;8281900;28;20232;-76
2022/08/14 16:46:01;;;;;;;5.80;4.37;;;;;;;31.38;28.76;96933.84;8281907;28;20246;-76
2022/08/14 16:50:09;;;;;;;5.63;4.20;;;;;;;31.02;28.73;96932.03;8282153;28;20242;-76
2022/08/14 16:54:16;;;;;;;6.73;4.20;;;;;;;30.62;29.50;96929.75;8281844;28;20391;-76
2022/08/14 16:58:37;;;;;;;8.60;4.13;;;;;;;30.58;29.76;96917.88;8281677;28;20239;-77
2022/08/14 17:02:42;;;;;;;5.27;4.77;;;;;;;30.42;29.89;96918.44;8290282;28;20230;-76
2022/08/14 17:06:48;;;;;;;7.17;4.60;;;;;;;30.30;30.26;96915.66;8292446;28;20352;-76
2022/08/14 17:11:03;;;;;;;6.83;4.53;;;;;;;30.25;30.20;96912.81;8292046;28;20237;-75
2022/08/14 17:15:14;;;;;;;5.80;4.70;;;;;;;30.18;30.39;96903.03;8292178;28;20229;-76
2022/08/14 17:19:22;;;;;;;5.30;4.80;;;;;;;29.99;30.43;96904.00;8292345;28;20231;-76
2022/08/14 17:23:24;;;;;;;5.87;4.43;;;;;;;30.07;30.81;96917.06;8292248;28;20230;-77
2022/08/14 17:27:33;;;;;;;5.57;4.97;;;;;;;30.13;30.86;96905.50;8292085;28;20234;-76
2022/08/14 17:31:38;;;;;;;5.10;4.60;;;;;;;29.95;30.68;96926.81;8292111;28;20244;-76
2022/08/14 17:36:11;;;;;;;5.50;4.83;;;;;;;29.93;30.80;96920.88;8291759;28;20560;-76
2022/08/14 17:40:29;;;;;;;5.53;4.40;;;;;;;29.82;30.88;96912.53;8292066;28;20557;-76
2022/08/14 17:44:35;;;;;;;4.90;4.40;;;;;;;29.91;30.54;96920.25;8291719;28;20236;-76
2022/08/14 17:48:47;;;;;;;5.40;4.80;;;;;;;29.74;30.91;96911.97;8291449;28;20231;-76
2022/08/14 17:53:11;;;;;;;7.53;4.90;;;;;;;29.76;31.00;96921.41;8291784;28;20538;-76
2022/08/14 17:57:17;;;;;;;5.67;5.10;;;;;;;29.69;31.41;96923.25;8291575;28;20249;-76
2022/08/14 18:01:22;;;;;;;5.10;4.50;;;;;;;29.65;31.43;96924.72;8291771;28;20229;-76
2022/08/14 18:05:28;;;;;;;9.13;4.50;;;;;;;29.54;31.15;96920.06;8291537;28;20245;-77
2022/08/14 18:09:53;;;;;;;9.00;6.17;;;;;;;29.45;31.91;96919.50;8291142;28;20238;-76
2022/08/14 18:14:02;;;;;;;7.53;6.03;;;;;;;29.44;31.75;96918.69;8286141;28;20238;-76
2022/08/14 18:18:09;;;;;;;5.77;5.27;;;;;;;29.44;31.77;96925.88;8286231;28;20245;-76
2022/08/14 18:22:14;;;;;;;7.27;5.60;;;;;;;29.27;32.29;96916.75;8286540;28;20236;-76
2022/08/14 18:26:34;;;;;;;6.47;4.87;;;;;;;29.24;32.46;96925.97;8286161;28;20236;-76
2022/08/14 18:30:40;;;;;;;8.60;5.37;;;;;;;29.24;32.21;96925.97;8286183;28;20282;-76
2022/08/14 18:35:03;;;;;;;7.03;4.90;;;;;;;29.22;32.48;96925.34;8285865;28;20226;-75
2022/08/14 18:39:23;;;;;;;9.53;5.10;;;;;;;29.16;32.62;96935.03;8285877;28;20237;-75
2022/08/14 18:43:43;;;;;;;9.33;4.60;;;;;;;29.10;32.69;96930.50;8285493;28;20433;-76
2022/08/14 18:48:09;;;;;;;6.87;4.80;;;;;;;29.14;32.56;96930.94;8285341;28;20244;-76
2022/08/14 18:52:20;;;;;;;5.07;4.57;;;;;;;29.08;32.78;96934.41;8285098;28;20378;-76
2022/08/14 18:56:55;;;;;;;6.73;5.20;;;;;;;28.97;33.28;96934.03;8285008;28;20242;-75
2022/08/14 19:01:00;;;;;;;7.47;5.47;;;;;;;28.88;33.37;96937.13;8284846;28;20233;-75
2022/08/14 19:05:04;;;;;;;8.37;5.00;;;;;;;28.78;33.48;96938.38;8285060;28;20283;-75
2022/08/14 19:09:44;;;;;;;6.57;5.00;;;;;;;28.79;33.78;96940.03;8284529;28;20301;-76
2022/08/14 19:13:54;;;;;;;6.70;4.80;;;;;;;28.68;33.75;96940.69;8284133;28;20241;-77
2022/08/14 19:18:02;;;;;;;5.87;5.30;;;;;;;28.58;33.93;96949.09;8284560;28;20259;-76
2022/08/14 19:22:28;;;;;;;6.50;5.20;;;;;;;28.51;34.26;96942.91;8283382;28;20304;-76
2022/08/14 19:26:31;;;;;;;8.27;5.53;;;;;;;28.39;34.46;96942.72;8284250;28;20528;-76
2022/08/14 19:30:51;;;;;;;5.83;5.17;;;;;;;28.43;34.49;96943.97;8283889;28;20237;-75
2022/08/14 19:35:00;;;;;;;7.33;5.00;;;;;;;28.40;34.01;96948.88;8283857;28;20229;-76
2022/08/14 19:39:04;;;;;;;6.07;5.20;;;;;;;28.41;34.72;96945.19;8283848;28;20341;-76
2022/08/14 19:43:08;;;;;;;8.40;4.73;;;;;;;28.35;34.24;96948.66;8283877;28;22529;-75
2022/08/14 19:47:12;;;;;;;5.97;5.37;;;;;;;28.23;34.75;96954.59;8283769;28;20291;-75
2022/08/14 19:51:15;;;;;;;6.87;5.50;;;;;;;28.18;35.10;96948.25;8283765;28;20229;-75